Time;durP1;ratioP1;P1;durP2;ratioP2;P2;SDS_P1;SDS_P2;PMS_P1;PMS_P2;Temp;Humidity;BMP_temperature;BMP_pressure;BME280_temperature;BME280_humidity;BME280_pressure;Samples;Min_cycle;Max_cycle;Signal;HPM_P1;HPM_P2
2022/12/26 00:02:42;;;;;;;113.15;61.13;;;;;;;10.34;83.63;102153.00;5014577;28;20353;-79
2022/12/26 00:05:20;;;;;;;113.97;63.00;;;;;;;10.84;84.11;102241.84;4996421;28;20478;-80
2022/12/26 00:07:52;;;;;;;;;;;;;;;10.82;83.46;102240.25;5015168;28;20053;-79
2022/12/26 00:10:19;;;;;;;119.38;63.15;;;;;;;10.81;83.84;102242.06;5015993;28;19932;-76
2022/12/26 00:12:56;;;;;;;111.10;63.95;;;;;;;10.78;83.53;102231.63;5000417;28;20057;-80
2022/12/26 00:15:45;;;;;;;115.85;64.35;;;;;;;10.85;83.62;102243.56;5000806;28;20404;-78
2022/12/26 00:18:15;;;;;;;112.18;63.75;;;;;;;10.77;83.38;102237.88;5018679;28;20316;-80
2022/12/26 00:20:43;;;;;;;110.18;61.80;;;;;;;10.74;83.93;102235.44;5020043;28;20514;-80
2022/12/26 00:23:10;;;;;;;117.30;64.22;;;;;;;10.51;84.06;102196.19;5019862;28;20055;-79
2022/12/26 00:25:37;;;;;;;126.70;68.00;;;;;;;10.77;83.58;102221.94;5017502;28;20268;-79
2022/12/26 00:28:04;;;;;;;119.68;63.00;;;;;;;10.77;83.55;102224.59;4997767;28;20476;-79
2022/12/26 00:30:32;;;;;;;124.97;64.88;;;;;;;10.77;83.28;102235.22;4997630;28;20582;-79
2022/12/26 00:32:59;;;;;;;126.15;65.57;;;;;;;10.34;83.32;102168.03;4995949;28;20061;-78
2022/12/26 00:35:26;;;;;;;124.20;66.80;;;;;;;10.70;83.38;102231.25;4995716;28;20144;-79
2022/12/26 00:37:56;;;;;;;124.65;66.80;;;;;;;10.74;83.66;102234.59;4995016;28;20053;-78
2022/12/26 00:40:23;;;;;;;118.22;66.78;;;;;;;10.83;82.87;102249.94;4997164;28;20310;-78
2022/12/26 00:42:50;;;;;;;125.05;65.30;;;;;;;10.39;82.84;102176.56;4996743;28;20656;-79
2022/12/26 00:45:17;;;;;;;123.80;67.63;;;;;;;10.87;83.39;102252.31;4997024;28;20054;-78
2022/12/26 00:47:44;;;;;;;112.90;62.92;;;;;;;10.28;83.44;102163.97;4998317;28;20068;-79
2022/12/26 00:50:19;;;;;;;116.43;63.88;;;;;;;10.87;83.25;102259.41;5012516;28;20045;-80
2022/12/26 00:52:46;;;;;;;121.28;65.25;;;;;;;10.85;83.27;102259.53;5010833;28;20328;-79
2022/12/26 00:55:14;;;;;;;131.57;69.45;;;;;;;10.88;83.22;102254.00;4999346;28;20060;-78
2022/12/26 00:57:43;;;;;;;120.80;63.80;;;;;;;10.86;82.87;102255.06;5014168;28;20558;-79
2022/12/26 01:00:11;;;;;;;120.28;65.45;;;;;;;10.51;83.09;102202.38;5017572;28;20065;-77
2022/12/26 01:02:38;;;;;;;128.88;66.57;;;;;;;10.83;83.02;102255.25;5023037;28;20061;-79
2022/12/26 01:05:10;;;;;;;129.82;68.30;;;;;;;10.67;83.19;102228.78;5014567;28;20049;-79
2022/12/26 01:07:38;;;;;;;125.03;67.57;;;;;;;10.48;83.58;102198.13;5017130;28;20137;-79
2022/12/26 01:10:26;;;;;;;121.15;65.50;;;;;;;10.80;83.04;102255.44;5015975;28;20053;-78
2022/12/26 01:12:53;;;;;;;114.20;63.25;;;;;;;10.71;83.47;102242.75;5016259;28;20049;-80
2022/12/26 01:15:20;;;;;;;122.28;64.30;;;;;;;10.58;82.92;102216.09;5010627;28;20159;-79
2022/12/26 01:17:47;;;;;;;130.52;66.85;;;;;;;10.75;83.09;102253.06;5015074;28;20410;-79
2022/12/26 01:20:14;;;;;;;118.65;64.50;;;;;;;10.87;82.95;102268.25;5011662;28;20049;-79
2022/12/26 01:22:40;;;;;;;113.25;60.42;;;;;;;10.62;83.28;102230.91;5014501;28;20163;-78
2022/12/26 01:25:09;;;;;;;118.50;65.03;;;;;;;10.71;83.59;102248.91;5015129;28;20481;-79
2022/12/26 01:27:36;;;;;;;114.88;64.40;;;;;;;10.77;83.29;102237.88;5017474;28;20056;-80
2022/12/26 01:30:04;;;;;;;123.70;65.88;;;;;;;10.69;83.56;102232.22;5012617;28;20052;-79
2022/12/26 01:32:37;;;;;;;123.07;65.32;;;;;;;10.76;83.61;102243.31;5015242;28;20156;-80
2022/12/26 01:35:05;;;;;;;119.45;63.25;;;;;;;10.86;82.61;102249.72;5014492;28;20056;-79
2022/12/26 01:37:32;;;;;;;127.57;65.63;;;;;;;10.87;83.04;102262.06;5013337;28;20080;-79
2022/12/26 01:39:59;;;;;;;126.85;67.13;;;;;;;10.53;83.14;102203.09;5014365;28;20044;-80
2022/12/26 01:42:38;;;;;;;121.68;64.70;;;;;;;10.84;83.41;102257.78;5015701;28;20056;-79
2022/12/26 01:45:28;;;;;;;117.57;63.33;;;;;;;10.77;83.45;102250.31;5014323;28;20320;-79
2022/12/26 01:48:11;;;;;;;122.97;63.50;;;;;;;10.84;83.98;102255.13;5014438;28;20163;-80
2022/12/26 01:51:00;;;;;;;117.57;62.45;;;;;;;10.79;83.37;102233.31;5012830;28;20491;-79
2022/12/26 01:53:32;;;;;;;115.97;61.05;;;;;;;10.84;84.09;102247.16;5018886;28;20357;-80
2022/12/26 01:56:11;;;;;;;114.38;58.95;;;;;;;10.69;83.43;102213.63;5014000;28;20114;-78
2022/12/26 01:58:45;;;;;;;112.70;59.83;;;;;;;10.84;83.52;102235.69;5015835;28;20041;-79
2022/12/26 02:01:12;;;;;;;111.25;59.40;;;;;;;10.87;83.52;102235.50;5016993;28;20053;-78
2022/12/26 02:06:33;;;;;;;115.30;58.40;;;;;;;10.80;83.62;102234.16;5016656;28;20049;-79
2022/12/26 02:09:04;;;;;;;106.28;52.78;;;;;;;10.93;83.35;102247.56;5016714;28;20136;-78
2022/12/26 02:11:36;;;;;;;100.80;49.92;;;;;;;9.90;84.03;102082.28;5017777;28;20107;-78
2022/12/26 02:14:07;;;;;;;106.70;52.28;;;;;;;10.91;84.21;102251.13;5027995;28;20064;-78
2022/12/26 02:16:36;;;;;;;99.07;49.35;;;;;;;10.69;82.83;102209.16;5022381;28;20053;-78
2022/12/26 02:19:28;;;;;;;101.03;48.75;;;;;;;10.79;83.23;102233.31;4990632;28;20637;-79
2022/12/26 02:22:25;;;;;;;101.47;53.42;;;;;;;10.92;83.12;102251.97;4992071;28;20053;-78
2022/12/26 02:25:18;;;;;;;110.05;54.58;;;;;;;10.91;83.31;102261.75;4994456;28;20056;-79
2022/12/26 02:28:31;;;;;;;112.53;55.60;;;;;;;10.85;83.53;102246.22;5009714;28;20282;-77
2022/12/26 02:31:45;;;;;;;99.18;52.58;;;;;;;10.80;83.40;102234.16;5013894;28;20537;-80
2022/12/26 02:34:18;;;;;;;109.32;53.45;;;;;;;10.93;83.16;102256.38;4992011;28;20471;-79
2022/12/26 02:37:13;;;;;;;99.85;53.03;;;;;;;10.88;83.62;102248.69;5018938;28;20063;-80
2022/12/26 02:40:01;;;;;;;110.25;54.55;;;;;;;10.89;83.07;102238.91;5033915;28;20061;-80
2022/12/26 02:42:37;;;;;;;109.70;55.00;;;;;;;10.87;83.35;102233.72;5020844;28;20056;-80
2022/12/26 02:48:56;;;;;;;94.05;51.53;;;;;;;10.86;83.03;102245.28;5022039;28;20044;-79
2022/12/26 03:15:14;;;;;;;94.25;46.55;;;;;;;10.82;83.68;102227.81;5019624;28;20056;-79
2022/12/26 03:17:57;;;;;;;90.47;47.63;;;;;;;10.84;83.34;102220.59;5019916;28;20657;-79
2022/12/26 03:20:34;;;;;;;86.20;47.35;;;;;;;10.83;83.58;102229.53;5014931;28;20057;-79
2022/12/26 03:23:08;;;;;;;100.90;49.08;;;;;;;10.82;83.98;102225.16;5017242;28;20219;-80
2022/12/26 03:28:27;;;;;;;90.75;46.53;;;;;;;10.70;83.98;102210.00;4997692;28;20056;-79
2022/12/26 03:30:57;;;;;;;91.97;46.80;;;;;;;10.72;84.65;102210.75;4995821;28;20057;-79
2022/12/26 03:36:19;;;;;;;77.18;42.30;;;;;;;10.74;84.57;102216.00;4996111;28;20061;-79
2022/12/26 03:39:14;;;;;;;90.38;42.92;;;;;;;10.75;84.69;102215.88;5010366;28;20675;-79
2022/12/26 04:20:32;;;;;;;80.57;41.45;;;;;;;10.61;84.81;102197.34;5014853;28;20477;-79
2022/12/26 04:46:40;;;;;;;83.60;40.70;;;;;;;10.52;85.72;102189.94;5014632;28;20155;-79
2022/12/26 04:51:57;;;;;;;87.43;41.03;;;;;;;10.56;86.10;102205.59;5017475;28;20053;-78
2022/12/26 04:54:24;;;;;;;87.57;44.67;;;;;;;10.60;86.13;102203.56;5031300;28;20157;-79
2022/12/26 04:56:51;;;;;;;90.55;42.13;;;;;;;10.46;85.94;102188.50;5022574;28;20265;-78
2022/12/26 04:59:18;;;;;;;94.68;44.20;;;;;;;10.47;85.71;102199.03;4995192;28;20132;-79
2022/12/26 05:10:15;;;;;;;87.03;42.00;;;;;;;10.53;86.19;102211.06;4996075;28;20063;-77
2022/12/26 05:12:42;;;;;;;84.88;42.58;;;;;;;10.42;85.75;102192.31;5010648;28;20049;-77
2022/12/26 05:15:16;;;;;;;80.70;41.38;;;;;;;10.16;85.32;102149.66;4996427;28;20431;-77
2022/12/26 05:29:08;;;;;;;92.95;42.83;;;;;;;10.47;85.90;102200.84;4998359;28;20065;-79
2022/12/26 05:31:34;;;;;;;88.07;44.40;;;;;;;10.51;85.51;102212.13;4999502;28;20049;-80
2022/12/26 05:34:11;;;;;;;95.60;45.40;;;;;;;10.44;85.51;102198.41;5012306;28;20061;-79
2022/12/26 05:36:42;;;;;;;91.65;43.72;;;;;;;10.61;85.63;102239.81;4993991;28;20041;-81
2022/12/26 05:39:09;;;;;;;88.78;43.70;;;;;;;10.62;85.99;102233.56;4991892;28;20060;-79
2022/12/26 05:41:37;;;;;;;94.97;44.22;;;;;;;10.64;85.87;102231.66;5007990;28;20096;-80
2022/12/26 05:44:08;;;;;;;94.70;42.47;;;;;;;10.64;85.93;102242.28;4991841;28;20057;-79
2022/12/26 05:46:39;;;;;;;90.03;43.30;;;;;;;10.65;85.33;102233.34;4996019;28;20175;-79
2022/12/26 05:49:09;;;;;;;90.43;43.30;;;;;;;10.55;85.63;102213.63;5011954;28;20474;-79
2022/12/26 05:51:36;;;;;;;88.15;43.97;;;;;;;10.70;85.42;102236.56;4996026;28;20561;-80
2022/12/26 05:54:03;;;;;;;91.60;42.92;;;;;;;10.71;85.59;102232.97;5012505;28;20052;-79
2022/12/26 05:56:31;;;;;;;81.00;41.25;;;;;;;10.57;85.72;102220.56;5004406;28;20776;-79
2022/12/26 05:59:00;;;;;;;85.18;41.70;;;;;;;10.32;85.84;102165.50;5013504;28;20055;-79
2022/12/26 06:01:28;;;;;;;86.18;42.50;;;;;;;10.53;85.93;102204.91;5012656;28;20218;-80
2022/12/26 06:03:59;;;;;;;84.28;41.40;;;;;;;10.67;85.36;102227.00;5016056;28;20248;-79
2022/12/26 06:06:27;;;;;;;91.82;44.17;;;;;;;10.73;85.44;102243.47;5020524;28;20232;-80
2022/12/26 06:08:55;;;;;;;86.68;40.65;;;;;;;10.73;86.11;102249.69;5016790;28;20388;-80
2022/12/26 06:11:25;;;;;;;85.38;42.08;;;;;;;10.63;85.58;102224.63;5018893;28;20049;-79
2022/12/26 06:13:52;;;;;;;82.15;40.15;;;;;;;10.55;85.78;102219.78;5033404;28;20059;-80
2022/12/26 06:16:21;;;;;;;81.15;40.45;;;;;;;10.52;86.18;102222.66;5030776;28;20441;-79
2022/12/26 06:18:51;;;;;;;75.93;39.05;;;;;;;10.67;86.34;102253.56;5021550;28;20052;-79
2022/12/26 06:21:19;;;;;;;91.07;40.72;;;;;;;10.43;85.96;102204.63;5018986;28;20508;-79
2022/12/26 06:23:49;;;;;;;94.80;41.47;;;;;;;10.61;86.14;102229.19;5020126;28;20490;-78
2022/12/26 06:26:17;;;;;;;84.75;41.40;;;;;;;10.65;85.85;102238.66;5032164;28;20395;-78
2022/12/26 06:28:46;;;;;;;80.93;39.25;;;;;;;10.66;85.83;102237.72;5000358;28;20061;-78
2022/12/26 06:31:19;;;;;;;86.22;40.97;;;;;;;10.65;85.56;102242.16;5005364;28;20060;-79
2022/12/26 06:34:00;;;;;;;96.80;40.55;;;;;;;10.53;86.08;102223.50;5019873;28;20454;-78
2022/12/26 06:36:29;;;;;;;88.80;40.95;;;;;;;10.69;85.85;102249.00;5017640;28;20426;-78
2022/12/26 06:38:56;;;;;;;94.95;42.55;;;;;;;10.51;86.18;102222.75;5018554;28;20059;-78
2022/12/26 06:41:24;;;;;;;82.80;40.38;;;;;;;10.64;86.30;102245.78;5015250;28;20261;-79
2022/12/26 06:43:51;;;;;;;86.45;39.97;;;;;;;10.64;86.59;102244.94;5019932;28;20056;-79
2022/12/26 06:46:21;;;;;;;97.63;41.50;;;;;;;10.54;86.41;102230.53;5017785;28;20164;-78
2022/12/26 06:48:49;;;;;;;86.45;39.90;;;;;;;10.27;86.23;102186.16;5000840;28;20503;-79
2022/12/26 06:51:22;;;;;;;86.97;40.65;;;;;;;10.60;86.95;102244.25;5018781;28;20171;-78
2022/12/26 06:53:53;;;;;;;76.97;39.63;;;;;;;10.47;86.67;102230.91;5019527;28;20511;-79
2022/12/26 06:56:26;;;;;;;87.32;40.65;;;;;;;10.45;87.00;102226.66;5020078;28;20061;-79
2022/12/26 06:58:58;;;;;;;87.20;40.30;;;;;;;10.50;86.59;102231.66;5018195;28;20045;-78
2022/12/26 07:01:28;;;;;;;89.88;43.08;;;;;;;9.08;86.82;102011.34;5026834;28;20383;-78
2022/12/26 07:03:57;;;;;;;93.60;39.92;;;;;;;10.40;87.43;102237.53;5022979;28;20040;-79
2022/12/26 07:06:25;;;;;;;88.72;42.22;;;;;;;10.34;87.12;102222.00;5023960;28;20814;-78
2022/12/26 07:08:56;;;;;;;87.03;41.42;;;;;;;10.55;87.61;102256.97;5020298;28;20055;-79
2022/12/26 07:11:26;;;;;;;76.15;36.17;;;;;;;10.41;87.08;102228.66;5018005;28;20127;-77
2022/12/26 07:13:54;;;;;;;73.97;36.97;;;;;;;10.41;87.10;102228.66;5020251;28;20131;-80
2022/12/26 07:16:22;;;;;;;77.28;36.72;;;;;;;10.55;86.83;102251.66;5018978;28;20087;-80
2022/12/26 07:18:54;;;;;;;73.07;37.10;;;;;;;9.98;86.51;102167.56;5019151;28;20045;-78
2022/12/26 07:21:22;;;;;;;72.18;35.95;;;;;;;10.61;86.83;102261.06;5018876;28;20197;-79
2022/12/26 07:23:49;;;;;;;73.80;36.28;;;;;;;10.03;86.52;102172.59;5015809;28;20056;-80
2022/12/26 07:26:23;;;;;;;75.20;38.00;;;;;;;10.41;86.67;102231.31;5013531;28;20091;-79
2022/12/26 07:28:55;;;;;;;90.25;38.80;;;;;;;10.56;86.52;102257.81;5017839;28;20053;-79
2022/12/26 07:31:23;;;;;;;79.65;37.53;;;;;;;10.32;87.07;102237.19;5029030;28;20337;-80
2022/12/26 07:33:59;;;;;;;84.25;36.72;;;;;;;10.54;86.79;102267.72;5016008;28;20514;-80
2022/12/26 07:36:26;;;;;;;77.90;36.67;;;;;;;10.58;87.01;102266.56;5030982;28;20048;-80
2022/12/26 07:38:53;;;;;;;82.63;37.58;;;;;;;10.07;86.82;102197.97;5031364;28;20355;-79
2022/12/26 07:44:14;;;;;;;73.72;36.67;;;;;;;10.52;86.67;102280.22;5014084;28;20122;-81
2022/12/26 07:46:41;;;;;;;72.72;34.88;;;;;;;10.14;86.71;102225.84;5018563;28;20053;-80
2022/12/26 07:49:10;;;;;;;66.28;34.83;;;;;;;10.39;87.00;102269.50;5023134;28;20045;-82
2022/12/26 07:51:37;;;;;;;73.45;34.92;;;;;;;10.44;87.38;102286.88;5021970;28;20056;-80
2022/12/26 07:54:04;;;;;;;66.70;32.90;;;;;;;10.40;87.60;102281.84;5019137;28;20060;-79
2022/12/26 07:56:40;;;;;;;75.63;34.10;;;;;;;10.28;87.62;102254.22;5015701;28;20457;-80
2022/12/26 07:59:14;;;;;;;70.50;35.22;;;;;;;10.47;87.59;102281.34;5013942;28;20540;-79
2022/12/26 08:01:42;;;;;;;67.70;32.45;;;;;;;10.06;87.09;102218.34;5017101;28;20045;-79
2022/12/26 08:04:10;;;;;;;74.15;34.13;;;;;;;10.17;87.52;102246.03;5025661;28;20053;-79
2022/12/26 08:06:37;;;;;;;73.43;35.25;;;;;;;10.33;87.73;102286.66;5036704;28;20052;-79
2022/12/26 08:09:04;;;;;;;67.70;33.10;;;;;;;10.30;87.41;102289.50;5035356;28;20048;-79
2022/12/26 08:11:37;;;;;;;71.60;32.97;;;;;;;10.13;87.47;102260.44;5038217;28;20045;-79
2022/12/26 08:14:04;;;;;;;64.53;32.10;;;;;;;10.21;87.37;102276.75;5035885;28;20076;-79
2022/12/26 08:16:34;;;;;;;65.70;32.33;;;;;;;10.20;87.61;102283.03;5028355;28;20267;-78
2022/12/26 08:19:04;;;;;;;66.28;31.92;;;;;;;9.66;87.88;102197.81;5016575;28;20460;-78
2022/12/26 08:21:31;;;;;;;60.25;30.90;;;;;;;10.01;88.29;102257.59;5017244;28;20331;-79
2022/12/26 08:23:58;;;;;;;65.03;30.80;;;;;;;10.10;88.27;102276.53;5013426;28;20163;-77
2022/12/26 08:26:26;;;;;;;66.82;31.73;;;;;;;10.14;88.62;102291.34;5014089;28;20049;-77
2022/12/26 08:28:55;;;;;;;71.38;31.77;;;;;;;9.90;88.95;102254.72;5015357;28;20144;-78
2022/12/26 08:31:21;;;;;;;64.13;30.98;;;;;;;10.20;89.04;102298.94;5031094;28;20729;-78
2022/12/26 08:33:56;;;;;;;64.20;32.38;;;;;;;9.78;88.62;102226.28;5012780;28;20535;-77
2022/12/26 08:36:23;;;;;;;67.07;30.45;;;;;;;10.21;88.27;102295.34;5030632;28;20410;-78
2022/12/26 08:38:52;;;;;;;66.53;30.63;;;;;;;9.40;88.37;102157.81;5017093;28;20580;-79
2022/12/26 08:41:19;;;;;;;61.83;30.52;;;;;;;10.18;88.88;102293.72;5031697;28;20053;-78
2022/12/26 08:43:48;;;;;;;65.43;29.70;;;;;;;9.94;89.14;102258.91;5013239;28;20561;-78
2022/12/26 08:46:38;;;;;;;81.20;32.60;;;;;;;10.15;88.80;102285.94;5029016;28;20816;-78
2022/12/26 08:49:05;;;;;;;67.35;31.80;;;;;;;9.76;89.02;102220.22;5016240;28;20063;-79
2022/12/26 08:51:34;;;;;;;66.60;29.55;;;;;;;10.18;88.69;102290.22;5017873;28;20061;-78
2022/12/26 08:54:01;;;;;;;66.65;32.40;;;;;;;10.16;89.20;102289.44;5017287;28;20061;-79
2022/12/26 08:56:28;;;;;;;68.38;32.40;;;;;;;10.31;89.23;102300.97;5017825;28;20052;-78
2022/12/26 08:58:56;;;;;;;63.45;30.40;;;;;;;9.65;88.24;102196.13;5018382;28;20195;-79
2022/12/26 09:01:29;;;;;;;66.53;33.00;;;;;;;10.27;88.06;102309.09;5019151;28;20127;-80
2022/12/26 09:04:00;;;;;;;66.72;31.23;;;;;;;9.91;88.17;102256.44;5020794;28;20080;-78
2022/12/26 09:06:30;;;;;;;65.53;32.55;;;;;;;10.23;88.40;102310.22;5014688;28;20045;-79
2022/12/26 09:08:59;;;;;;;69.55;32.00;;;;;;;9.79;89.05;102233.31;5016051;28;20053;-78
2022/12/26 09:11:29;;;;;;;72.30;31.90;;;;;;;10.25;88.90;102312.78;5017497;28;20049;-80
2022/12/26 09:14:00;;;;;;;72.93;31.35;;;;;;;9.82;89.18;102238.41;5020238;28;20526;-77
2022/12/26 09:16:45;;;;;;;60.20;31.10;;;;;;;9.97;88.99;102248.09;5019986;28;20045;-78
2022/12/26 09:19:18;;;;;;;68.28;30.52;;;;;;;10.10;89.23;102268.56;5017084;28;20415;-79
2022/12/26 09:22:49;;;;;;;61.95;32.50;;;;;;;10.11;89.04;102262.34;5021171;28;20057;-79
2022/12/26 09:24:36;;;;;;;58.58;28.90;;;;;;;10.24;88.71;102273.91;5021708;28;20059;-79
2022/12/26 09:27:04;;;;;;;69.20;29.55;;;;;;;10.49;88.47;102289.25;5017834;28;20057;-78
2022/12/26 09:29:30;;;;;;;68.97;33.08;;;;;;;10.56;88.10;102295.00;5019439;28;20141;-78
2022/12/26 09:31:57;;;;;;;73.25;33.03;;;;;;;10.44;88.21;102272.75;5017211;28;20303;-78
2022/12/26 09:34:24;;;;;;;77.72;33.70;;;;;;;10.58;87.59;102295.75;5015155;28;20053;-79
2022/12/26 09:36:51;;;;;;;70.10;31.40;;;;;;;10.58;87.77;102298.41;5013040;28;20570;-78
2022/12/26 09:39:18;;;;;;;64.13;29.45;;;;;;;10.19;87.20;102209.63;5016218;28;20049;-77
2022/12/26 09:42:07;;;;;;;71.50;31.08;;;;;;;10.74;87.43;102293.03;5016656;28;20086;-78
2022/12/26 09:45:07;;;;;;;57.33;27.70;;;;;;;10.62;87.20;102246.81;5031631;28;20079;-78
2022/12/26 09:48:22;;;;;;;59.55;27.52;;;;;;;11.15;85.61;102293.03;5018535;28;20048;-78
2022/12/26 09:50:50;;;;;;;60.08;28.42;;;;;;;11.02;85.29;102260.22;5016277;28;20048;-78
2022/12/26 09:53:33;;;;;;;70.72;31.95;;;;;;;11.09;85.00;102275.69;5015148;28;20049;-78
2022/12/26 09:56:04;;;;;;;71.38;33.92;;;;;;;10.94;84.87;102247.44;5013721;28;20247;-78
2022/12/26 09:58:34;;;;;;;50.25;25.27;;;;;;;10.87;85.33;102230.19;4995218;28;20485;-78
2022/12/26 10:01:16;;;;;;;74.40;33.05;;;;;;;11.32;84.62;102287.47;5016937;28;20783;-78
2022/12/26 10:03:46;;;;;;;74.20;32.13;;;;;;;11.14;84.24;102259.47;5014209;28;20146;-78
2022/12/26 10:06:21;;;;;;;60.13;29.20;;;;;;;11.08;84.60;102265.16;5005212;28;20813;-78
2022/12/26 10:09:15;;;;;;;70.28;31.13;;;;;;;11.24;84.47;102297.78;5018079;28;20052;-79
2022/12/26 10:12:06;;;;;;;72.00;33.88;;;;;;;11.26;84.39;102311.81;5013591;28;20503;-77
2022/12/26 10:14:43;;;;;;;66.93;31.85;;;;;;;10.82;85.04;102242.91;5008472;28;20667;-77
2022/12/26 10:17:22;;;;;;;70.82;32.53;;;;;;;11.11;84.73;102287.06;5014002;28;20300;-78
2022/12/26 10:19:58;;;;;;;62.42;30.73;;;;;;;10.81;84.87;102236.75;5011617;28;20048;-78
2022/12/26 10:22:55;;;;;;;68.72;30.88;;;;;;;11.24;84.69;102310.22;5018950;28;20418;-77
2022/12/26 10:25:42;;;;;;;69.75;33.10;;;;;;;11.23;84.65;102301.38;5008106;28;20626;-78
2022/12/26 10:28:24;;;;;;;53.28;27.75;;;;;;;11.36;84.86;102300.56;4994992;28;20049;-78
2022/12/26 10:30:55;;;;;;;65.47;30.52;;;;;;;11.53;83.88;102301.19;4993944;28;20333;-78
2022/12/26 10:33:44;;;;;;;65.35;33.55;;;;;;;11.59;83.54;102297.25;4993259;28;20255;-77
2022/12/26 10:36:22;;;;;;;76.95;37.17;;;;;;;11.58;83.01;102300.88;4993191;28;20542;-78
2022/12/26 10:39:02;;;;;;;79.35;40.33;;;;;;;11.46;82.75;102293.72;4993536;28;20057;-79
2022/12/26 10:41:47;;;;;;;80.40;34.92;;;;;;;11.30;83.16;102269.94;4997491;28;20379;-78
2022/12/26 10:44:16;;;;;;;72.82;37.97;;;;;;;11.42;83.40;102289.53;4998735;28;20095;-77
2022/12/26 10:47:21;;;;;;;75.68;38.40;;;;;;;11.63;82.56;102271.31;4999441;28;20049;-77
2022/12/26 10:49:51;;;;;;;71.50;35.05;;;;;;;11.74;82.14;102274.94;4993882;28;20136;-77
2022/12/26 10:52:34;;;;;;;76.32;40.40;;;;;;;11.84;81.40;102271.66;5000574;28;20075;-78
2022/12/26 10:55:01;;;;;;;77.93;39.42;;;;;;;11.69;80.96;102255.78;5018384;28;20328;-78
2022/12/26 10:57:57;;;;;;;54.92;29.27;;;;;;;11.54;81.76;102223.09;5029931;28;20233;-77
2022/12/26 11:00:26;;;;;;;94.20;45.42;;;;;;;11.80;80.98;102262.22;5013889;28;20194;-78
2022/12/26 11:03:07;;;;;;;79.95;41.33;;;;;;;11.84;80.33;102274.31;5013736;28;20064;-77
2022/12/26 11:05:40;;;;;;;83.60;43.10;;;;;;;11.79;80.76;102271.97;5017510;28;20166;-79
2022/12/26 11:08:39;;;;;;;83.20;40.75;;;;;;;11.82;80.86;102282.44;5017208;28;20479;-79
2022/12/26 11:11:21;;;;;;;59.67;30.85;;;;;;;11.68;80.97;102243.44;5024241;28;20556;-78
2022/12/26 11:13:57;;;;;;;70.90;34.40;;;;;;;12.04;80.54;102263.22;5016780;28;20529;-77
2022/12/26 11:16:32;;;;;;;92.60;47.33;;;;;;;11.97;78.92;102248.63;5018420;28;20266;-80
2022/12/26 11:19:00;;;;;;;99.80;48.67;;;;;;;11.76;79.05;102224.28;5014518;28;20061;-77
2022/12/26 11:21:29;;;;;;;82.65;46.53;;;;;;;12.01;79.63;102263.41;5015197;28;20049;-80
2022/12/26 11:24:08;;;;;;;91.05;47.58;;;;;;;11.95;79.81;102246.06;5020767;28;20612;-78
2022/12/26 11:26:36;;;;;;;96.63;50.15;;;;;;;12.00;78.92;102252.88;5015930;28;20835;-79
2022/12/26 11:29:10;;;;;;;98.28;49.10;;;;;;;11.87;79.56;102252.84;5018911;28;20233;-80
2022/12/26 11:31:42;;;;;;;98.60;50.55;;;;;;;11.82;79.29;102246.97;5016348;28;20063;-79
2022/12/26 11:34:17;;;;;;;98.40;51.03;;;;;;;11.81;79.95;102248.78;5018381;28;20500;-80
2022/12/26 11:36:48;;;;;;;83.80;43.40;;;;;;;11.83;80.42;102246.88;5014637;28;20045;-79
2022/12/26 11:39:28;;;;;;;97.75;50.28;;;;;;;11.67;80.15;102215.13;5015379;28;20053;-79
2022/12/26 11:41:56;;;;;;;100.45;50.78;;;;;;;11.86;80.11;102238.66;5018680;28;20450;-80
2022/12/26 11:44:51;;;;;;;97.25;49.10;;;;;;;11.81;80.27;102226.66;5017348;28;20293;-78
2022/12/26 11:47:29;;;;;;;103.72;50.85;;;;;;;11.87;79.67;102220.91;5016440;28;20059;-79
2022/12/26 11:50:10;;;;;;;105.53;55.15;;;;;;;11.92;79.88;102234.78;5017832;28;20084;-79
2022/12/26 11:52:44;;;;;;;106.80;53.78;;;;;;;11.92;80.24;102230.31;5015595;28;20053;-79
2022/12/26 11:55:26;;;;;;;92.80;46.20;;;;;;;11.83;79.30;102203.44;5015120;28;20091;-79
2022/12/26 11:58:05;;;;;;;120.28;55.85;;;;;;;11.57;78.88;102152.88;5015224;28;20064;-79
2022/12/26 12:00:53;;;;;;;122.47;56.67;;;;;;;11.86;78.92;102193.44;5016799;28;20114;-79
2022/12/26 12:03:28;;;;;;;100.07;48.90;;;;;;;12.02;79.10;102203.06;5001669;28;20064;-79
2022/12/26 12:06:10;;;;;;;113.47;55.38;;;;;;;12.09;77.86;102199.88;5016092;28;20102;-79
2022/12/26 12:09:04;;;;;;;107.53;55.72;;;;;;;11.98;78.87;102191.75;5017118;28;20053;-79
2022/12/26 12:11:42;;;;;;;113.60;58.20;;;;;;;12.04;78.31;102207.31;5016598;28;20863;-79
2022/12/26 12:14:45;;;;;;;100.10;51.38;;;;;;;11.69;78.29;102149.38;5010444;28;20643;-78
2022/12/26 12:17:43;;;;;;;114.57;58.20;;;;;;;11.86;78.14;102171.28;5003101;28;20045;-78
2022/12/26 12:20:31;;;;;;;112.30;59.40;;;;;;;11.97;77.25;102192.75;5016908;28;20048;-78
2022/12/26 12:23:19;;;;;;;102.72;52.22;;;;;;;12.10;78.75;102190.91;5017489;28;20449;-79
2022/12/26 12:26:00;;;;;;;96.63;51.22;;;;;;;11.86;77.39;102107.44;5020972;28;20282;-79
2022/12/26 12:28:49;;;;;;;113.47;56.67;;;;;;;12.32;78.09;102181.41;5033867;28;20052;-79
2022/12/26 12:31:51;;;;;;;106.78;54.78;;;;;;;12.14;78.22;102160.47;5040559;28;20061;-79
2022/12/26 12:34:49;;;;;;;91.30;47.83;;;;;;;12.32;78.11;102173.41;5005070;28;20055;-78
2022/12/26 12:37:23;;;;;;;98.28;50.88;;;;;;;12.07;77.59;102108.63;5017305;28;20419;-79
2022/12/26 12:40:27;;;;;;;111.05;55.03;;;;;;;12.49;77.15;102173.06;5032178;28;20142;-79
2022/12/26 12:43:06;;;;;;;83.57;42.47;;;;;;;12.49;77.21;102175.72;5013519;28;20084;-78
2022/12/26 12:45:45;;;;;;;79.28;44.50;;;;;;;12.46;76.90;102165.28;5013367;28;20241;-78
2022/12/26 12:48:30;;;;;;;84.43;44.08;;;;;;;12.53;76.85;102169.22;5029491;28;20060;-79
2022/12/26 12:51:26;;;;;;;87.00;46.65;;;;;;;12.44;76.50;102171.69;5011944;28;20053;-79
2022/12/26 12:54:25;;;;;;;100.15;54.65;;;;;;;12.38;76.99;102157.00;5017647;28;20064;-79
2022/12/26 12:57:11;;;;;;;108.20;55.22;;;;;;;12.43;76.85;102169.97;5014801;28;20057;-78
2022/12/26 12:59:59;;;;;;;88.95;45.28;;;;;;;12.02;77.47;102104.59;5030450;28;20799;-79
2022/12/26 13:02:59;;;;;;;89.63;47.53;;;;;;;12.21;76.96;102149.34;5013737;28;20086;-79
2022/12/26 13:05:51;;;;;;;90.63;46.92;;;;;;;12.31;77.22;102171.72;5011323;28;20142;-80
2022/12/26 13:08:43;;;;;;;96.88;50.33;;;;;;;12.42;77.12;102166.47;5013997;28;20160;-79
2022/12/26 13:11:24;;;;;;;100.43;53.95;;;;;;;12.46;76.32;102159.97;5011278;28;20206;-78
2022/12/26 13:14:07;;;;;;;110.63;56.20;;;;;;;11.93;76.90;102090.94;5010099;28;20693;-79
2022/12/26 13:16:42;;;;;;;109.30;56.05;;;;;;;11.98;77.11;102098.63;5014304;28;20060;-80
2022/12/26 13:19:27;;;;;;;98.78;52.88;;;;;;;11.94;76.89;102110.44;5013163;28;20063;-79
2022/12/26 13:22:05;;;;;;;90.40;50.10;;;;;;;12.11;77.50;102160.69;5012049;28;20061;-80
2022/12/26 13:24:44;;;;;;;102.90;53.05;;;;;;;11.93;77.71;102116.72;5012571;28;20061;-79
2022/12/26 13:27:31;;;;;;;104.85;52.53;;;;;;;12.03;78.38;102128.41;5001452;28;20798;-79
2022/12/26 13:30:14;;;;;;;109.70;57.05;;;;;;;12.17;77.74;102160.22;4992247;28;20076;-76
2022/12/26 13:32:42;;;;;;;112.72;57.67;;;;;;;12.16;77.81;102169.19;4993473;28;20084;-78
2022/12/26 13:35:46;;;;;;;114.72;57.40;;;;;;;12.11;77.80;102165.13;4994396;28;20471;-79
2022/12/26 13:38:13;;;;;;;112.00;58.60;;;;;;;12.10;78.00;102166.94;5009491;28;20506;-78
2022/12/26 13:44:01;;;;;;;109.43;57.35;;;;;;;11.88;78.37;102142.81;5015524;28;20497;-78
2022/12/26 13:46:58;;;;;;;116.88;58.25;;;;;;;12.07;78.44;102171.66;5014601;28;20049;-79
2022/12/26 13:49:37;;;;;;;110.03;57.58;;;;;;;12.06;78.65;102170.78;4992889;28;20053;-78
2022/12/26 13:52:10;;;;;;;113.85;56.42;;;;;;;11.38;78.60;102057.53;5015516;28;20059;-78